Harlingen, TX

1:15 PM CST on January 25, 2015 (GMT -0600)
KNIGHTWOOD/WD5ADC | Change Station
CLOSE
Current Station
Personal Weather Station
Location: Harlingen, TX
Elevation: 49 ft
Nearby Weather Stations

Elev 49 ft 26.22 °N, 97.69 °W | Updated 3 minutes ago

Partly Cloudy
Partly Cloudy
68.2 °F
Feels Like 68.2 °F
N
3.0
Wind Variable Wind from West
Gusts 6.0 mph

Today
High -- | Low -- °F
--% Chance of Precip.
Yesterday
High -- | Low -- °F
Precip. -- in
7:17 AM 6:08 PM
Waxing Crescent, 35% visible
Pressure 30.12 in
Visibility 10.0 miles
Clouds Clear
Dew Point 51 °F
Humidity 55%
Rainfall 0.00 in
Snow Depth Not available.
UV 6 out of 12
Pollen 8.00 out of 12
Air Quality Not available.
Flu Activity Not available.
METAR KHRL 251852Z 21007KT 10SM CLR 19/10 A3011 RMK AO2 SLP197 T01940100

More Conditions Fewer Conditions

Pressure 30.12 in
Visibility 10.0 miles
Clouds Clear
Dew Point 51 °F
Humidity 55%
Rainfall 0.00 in
Snow Depth Not available.
UV 6 out of 12
Pollen 8.00 out of 12
Air Quality Not available.
Flu Activity Not available.
METAR KHRL 251852Z 21007KT 10SM CLR 19/10 A3011 RMK AO2 SLP197 T01940100

More Conditions Fewer Conditions

10-Day Weather Forecast

Almanac

Astronomy

Jan. 25, 2015 Rise Set
Actual Time
Civil Twilight
Nautical Twilight
Astronomical Twilight
Moon
Length of Visible Light
Length of Day
Tomorrow will be .
, % of the Moon is Illuminated

Today's Extremes

State Highs State Lows

Community

WunderPhotos

Upload Photos

1,790,026 photos uploaded!

WunderBlogs® & News

Nearby

Air Quality

  Air Quality AQ Index Pollutant
Not available.

Snow Depth

Station Depth Elevation

Earthquake Activity

City Distance Mag. Time & Date
Minimum magnitude displayed is 2.5.

Coastal Water Temperatures

Place Temperature

Nearby Weather Stations